createdAt,value
2023-03-11T00:02:22.814Z,98688.22
2023-03-11T00:04:49.457Z,98706.53
2023-03-11T00:07:16.054Z,98633.91
2023-03-11T00:09:42.774Z,98693.75
2023-03-11T00:12:09.672Z,98716.84
2023-03-11T00:14:36.257Z,98715.19
2023-03-11T00:17:02.826Z,98670.53
2023-03-11T00:19:29.378Z,98702.84
2023-03-11T00:21:55.898Z,98720.13
2023-03-11T00:24:22.518Z,98720.31
2023-03-11T00:26:49.380Z,98664.28
2023-03-11T00:29:15.876Z,98704.06
2023-03-11T00:31:42.542Z,98671.47
2023-03-11T00:34:09.193Z,98654.16
2023-03-11T00:36:36.008Z,98604.84
2023-03-11T00:39:04.465Z,98636.47
2023-03-11T00:41:31.103Z,98632.69
2023-03-11T00:43:57.587Z,98647.09
2023-03-11T00:46:24.498Z,98635.47
2023-03-11T00:48:52.080Z,98623.22
2023-03-11T00:51:20.031Z,98604.31
2023-03-11T00:53:46.917Z,98603.81
2023-03-11T00:56:15.846Z,98648.59
2023-03-11T00:58:44.593Z,98611.50
2023-03-11T01:01:18.249Z,98576.22
2023-03-11T01:03:45.514Z,98597.25
2023-03-11T01:06:12.648Z,98511.19
2023-03-11T01:08:39.425Z,98565.09
2023-03-11T01:11:07.602Z,98532.44
2023-03-11T01:13:35.560Z,98567.25
2023-03-11T01:16:02.424Z,98541.16
2023-03-11T01:18:29.092Z,98551.34
2023-03-11T01:20:55.743Z,98558.72
2023-03-11T01:23:22.579Z,98559.88
2023-03-11T01:25:49.216Z,98484.72
2023-03-11T01:28:15.927Z,98538.84
2023-03-11T01:30:43.707Z,98504.38
2023-03-11T01:33:15.217Z,98474.56
2023-03-11T01:35:42.186Z,98476.75
2023-03-11T01:38:09.253Z,98469.16
2023-03-11T01:40:38.796Z,98463.00
2023-03-11T01:43:26.839Z,98427.91
2023-03-11T01:45:53.293Z,98405.84
2023-03-11T01:48:20.078Z,98401.06
2023-03-11T01:50:50.643Z,98405.84
2023-03-11T01:53:18.819Z,98408.19
2023-03-11T01:55:47.436Z,98399.94
2023-03-11T01:58:25.290Z,98409.13
2023-03-11T02:00:53.740Z,98388.97
2023-03-11T02:03:29.854Z,98385.59
2023-03-11T02:05:59.665Z,98363.50
2023-03-11T02:08:26.404Z,98282.22
2023-03-11T02:10:54.350Z,98364.91
2023-03-11T02:13:20.933Z,98349.63
2023-03-11T02:15:48.200Z,98257.91
2023-03-11T02:18:15.503Z,98335.06
2023-03-11T02:21:00.124Z,98308.28
2023-03-11T02:23:34.186Z,98328.13
2023-03-11T02:26:09.480Z,98297.31
2023-03-11T02:28:38.802Z,98264.94
2023-03-11T02:31:05.239Z,98276.63
2023-03-11T02:33:34.331Z,98281.03
2023-03-11T02:36:00.890Z,98214.91
2023-03-11T02:38:27.601Z,98222.81
2023-03-11T02:40:58.046Z,98229.41
2023-03-11T02:43:33.233Z,98212.00
2023-03-11T02:46:00.510Z,98244.09
2023-03-11T02:48:29.221Z,98149.69
2023-03-11T02:50:56.684Z,98214.06
2023-03-11T02:53:23.210Z,98233.06
2023-03-11T02:55:49.681Z,98219.66
2023-03-11T02:58:16.203Z,98240.84
2023-03-11T03:00:42.888Z,98208.09
2023-03-11T03:03:09.305Z,98171.81
2023-03-11T03:05:35.801Z,98106.50
2023-03-11T03:08:02.373Z,98177.09
2023-03-11T03:10:29.052Z,98131.31
2023-03-11T03:12:55.556Z,98156.84
2023-03-11T03:15:22.048Z,98147.63
2023-03-11T03:17:48.574Z,98142.25
2023-03-11T03:20:15.178Z,98066.94
2023-03-11T03:22:42.435Z,98076.72
2023-03-11T03:25:09.379Z,98116.00
2023-03-11T03:27:36.307Z,98029.72
2023-03-11T03:30:03.905Z,98083.63
2023-03-11T03:32:30.439Z,98033.94
2023-03-11T03:34:57.252Z,98039.19
2023-03-11T03:37:23.893Z,98087.84
2023-03-11T03:39:50.434Z,98033.16
2023-03-11T03:42:17.175Z,98021.41
2023-03-11T03:44:43.963Z,98008.72
2023-03-11T03:47:10.600Z,98070.81
2023-03-11T03:49:37.083Z,98021.97
2023-03-11T03:52:06.016Z,97967.22
2023-03-11T03:54:32.503Z,98031.03
2023-03-11T03:56:58.986Z,98019.78
2023-03-11T03:59:25.486Z,97987.75
2023-03-11T04:01:52.081Z,97963.53
2023-03-11T04:04:18.708Z,97978.13
2023-03-11T04:06:45.213Z,97893.84
2023-03-11T04:09:12.614Z,97915.75
2023-03-11T04:11:39.120Z,97907.31
2023-03-11T04:14:06.492Z,97925.97
2023-03-11T04:16:33.087Z,97885.84
2023-03-11T04:18:59.761Z,97834.88
2023-03-11T04:21:26.248Z,97790.28
2023-03-11T04:23:52.787Z,97829.63
2023-03-11T04:26:19.208Z,97814.31
2023-03-11T04:28:45.672Z,97772.41
2023-03-11T04:31:12.442Z,97770.25
2023-03-11T04:33:39.008Z,97750.00
2023-03-11T04:36:07.659Z,97753.16
2023-03-11T04:38:34.593Z,97730.75
2023-03-11T04:41:02.278Z,97717.75
2023-03-11T04:43:29.172Z,97737.41
2023-03-11T04:45:55.836Z,97702.25
2023-03-11T04:48:22.313Z,97714.81
2023-03-11T04:50:49.794Z,97666.09
2023-03-11T04:53:16.300Z,97672.00
2023-03-11T04:55:42.809Z,97621.72
2023-03-11T04:58:09.298Z,97639.00
2023-03-11T05:00:35.983Z,97591.66
2023-03-11T05:03:02.435Z,97661.00
2023-03-11T05:05:28.847Z,97553.38
2023-03-11T05:07:55.306Z,97604.22
2023-03-11T05:10:21.850Z,97590.66
2023-03-11T05:12:49.488Z,97566.44
2023-03-11T05:15:16.232Z,97605.78
2023-03-11T05:17:42.784Z,97544.94
2023-03-11T05:20:11.562Z,97492.88
2023-03-11T05:22:38.518Z,97523.22
2023-03-11T05:25:06.625Z,97509.06
2023-03-11T05:27:33.307Z,97430.84
2023-03-11T05:29:59.805Z,97493.59
2023-03-11T05:32:26.533Z,97449.38
2023-03-11T05:34:56.472Z,97446.41
2023-03-11T05:37:23.029Z,97313.69
2023-03-11T05:39:49.923Z,97341.88
2023-03-11T05:42:16.581Z,97390.25
2023-03-11T05:44:43.070Z,97410.50
2023-03-11T05:47:09.744Z,97379.69
2023-03-11T05:49:36.247Z,97325.31
2023-03-11T05:52:03.183Z,97363.44
2023-03-11T05:54:30.111Z,97335.47
2023-03-11T05:56:56.529Z,97289.22
2023-03-11T05:59:23.044Z,97323.53
2023-03-11T06:01:49.716Z,97272.56
2023-03-11T06:04:16.365Z,97280.41
2023-03-11T06:06:42.805Z,97322.66
2023-03-11T06:09:16.008Z,97287.78
2023-03-11T06:11:43.998Z,97197.53
2023-03-11T06:14:12.605Z,97255.22
2023-03-11T06:16:40.056Z,97232.09
2023-03-11T06:19:06.692Z,97273.56
2023-03-11T06:21:33.217Z,97229.22
2023-03-11T06:24:00.115Z,97255.66
2023-03-11T06:26:26.668Z,97181.97
2023-03-11T06:28:53.069Z,97153.56
2023-03-11T06:31:25.782Z,97200.69
2023-03-11T06:33:52.704Z,97196.41
2023-03-11T06:36:20.411Z,97156.41
2023-03-11T06:38:47.610Z,97125.50
2023-03-11T06:41:14.122Z,97079.22
2023-03-11T06:43:40.564Z,97128.13
2023-03-11T06:46:13.130Z,97135.97
2023-03-11T06:48:39.690Z,97094.53
2023-03-11T06:51:06.634Z,97125.75
2023-03-11T06:53:33.625Z,97096.84
2023-03-11T06:56:00.035Z,97064.75
2023-03-11T06:58:27.083Z,97070.91
2023-03-11T07:00:53.761Z,97039.81
2023-03-11T07:03:20.426Z,97004.22
2023-03-11T07:05:51.633Z,97010.03
2023-03-11T07:08:18.609Z,96975.31
2023-03-11T07:10:45.855Z,96997.94
2023-03-11T07:13:12.619Z,97050.09
2023-03-11T07:15:39.092Z,97037.03
2023-03-11T07:18:05.704Z,96982.41
2023-03-11T07:20:32.167Z,97051.44
2023-03-11T07:22:58.653Z,96979.94
2023-03-11T07:25:25.148Z,96962.06
2023-03-11T07:27:52.263Z,97038.22
2023-03-11T07:30:19.363Z,96985.25
2023-03-11T07:32:46.171Z,97032.34
2023-03-11T07:35:12.676Z,97056.91
2023-03-11T07:37:39.259Z,96937.72
2023-03-11T07:40:06.311Z,96927.28
2023-03-11T07:42:33.724Z,96799.88
2023-03-11T07:45:00.160Z,96782.44
2023-03-11T07:47:26.655Z,96805.03
2023-03-11T07:49:53.140Z,96796.50
2023-03-11T07:52:19.656Z,96821.94
2023-03-11T07:54:46.099Z,97019.72
2023-03-11T07:57:12.620Z,97114.69
2023-03-11T07:59:39.167Z,97191.72
2023-03-11T08:02:05.699Z,97091.59
2023-03-11T08:04:32.175Z,97244.56
2023-03-11T08:06:58.647Z,97258.13
2023-03-11T08:09:26.302Z,97363.81
2023-03-11T08:11:52.735Z,97325.56
2023-03-11T08:14:19.760Z,97358.00
2023-03-11T08:16:46.300Z,97467.28
2023-03-11T08:19:13.903Z,97428.78
2023-03-11T08:21:40.648Z,97412.13
2023-03-11T08:24:07.381Z,97521.28
2023-03-11T08:26:33.990Z,97538.75
2023-03-11T08:29:00.467Z,97606.16
2023-03-11T08:31:30.298Z,97688.00
2023-03-11T08:34:03.144Z,97755.38
2023-03-11T08:36:30.907Z,97754.47
2023-03-11T08:38:57.911Z,97939.69
2023-03-11T08:41:25.149Z,98016.34
2023-03-11T08:43:51.842Z,98150.59
2023-03-11T08:46:26.610Z,98244.25
2023-03-11T08:48:54.323Z,98399.94
2023-03-11T08:51:21.579Z,98514.25
2023-03-11T08:53:48.533Z,98682.09
2023-03-11T08:56:14.978Z,98777.31
2023-03-11T08:58:41.502Z,98873.81
2023-03-11T09:01:08.354Z,99117.63
2023-03-11T09:03:35.986Z,99292.13
2023-03-11T09:06:05.721Z,99392.81
2023-03-11T09:08:32.370Z,99616.75
2023-03-11T09:10:58.998Z,99818.81
2023-03-11T09:13:25.597Z,99969.63
2023-03-11T09:15:53.330Z,100114.47
2023-03-11T09:18:21.017Z,100288.63
2023-03-11T09:20:47.566Z,100260.94
2023-03-11T09:23:16.928Z,100461.00
2023-03-11T09:25:43.745Z,100440.75
2023-03-11T09:28:10.211Z,100514.47
2023-03-11T09:30:36.647Z,100586.22
2023-03-11T09:33:03.130Z,100581.91
2023-03-11T09:35:29.689Z,100623.06
2023-03-11T09:37:56.274Z,100609.69
2023-03-11T09:40:25.598Z,100727.94
2023-03-11T09:43:04.656Z,100714.56
2023-03-11T09:45:35.876Z,100772.19
2023-03-11T09:48:31.831Z,100778.81
2023-03-11T09:51:03.476Z,100633.53
2023-03-11T09:53:48.496Z,100416.69
2023-03-11T09:56:18.869Z,100440.06
2023-03-11T09:58:55.352Z,100459.56
2023-03-11T10:01:26.667Z,100496.00
2023-03-11T10:03:57.474Z,100538.72
2023-03-11T10:06:26.598Z,100541.78
2023-03-11T10:08:56.984Z,100638.72
2023-03-11T10:11:42.602Z,100594.91
2023-03-11T10:14:46.900Z,100676.50
2023-03-11T10:17:34.655Z,100677.75
2023-03-11T10:20:17.260Z,100719.50
2023-03-11T10:22:56.209Z,100751.78
2023-03-11T10:25:42.731Z,100833.72
2023-03-11T10:28:35.359Z,100794.16
2023-03-11T10:31:27.653Z,100903.50
2023-03-11T10:34:06.355Z,100926.13
2023-03-11T10:36:53.745Z,100843.75
2023-03-11T10:39:22.623Z,100922.50
2023-03-11T10:42:00.204Z,100849.88
2023-03-11T10:44:34.945Z,100810.22
2023-03-11T10:47:01.680Z,100830.25
2023-03-11T10:49:28.952Z,100944.97
2023-03-11T10:51:56.242Z,101008.03
2023-03-11T10:54:35.948Z,100972.00
2023-03-11T10:57:05.486Z,100923.38
2023-03-11T10:59:34.826Z,101002.06
2023-03-11T11:02:23.508Z,101016.44
2023-03-11T11:05:22.204Z,101024.56
2023-03-11T11:08:03.558Z,100967.34
2023-03-11T11:10:31.998Z,100966.00
2023-03-11T11:13:08.741Z,100895.09
2023-03-11T11:15:41.277Z,100985.16
2023-03-11T11:18:19.746Z,101057.63
2023-03-11T11:20:59.934Z,101024.09
2023-03-11T11:23:35.397Z,101006.09
2023-03-11T11:26:05.962Z,101033.13
2023-03-11T11:28:34.041Z,100991.88
2023-03-11T11:31:06.590Z,101015.44
2023-03-11T11:33:38.541Z,101107.00
2023-03-11T11:36:12.141Z,101051.84
2023-03-11T11:38:39.649Z,100962.66
2023-03-11T11:41:09.175Z,100908.97
2023-03-11T11:44:01.447Z,100960.63
2023-03-11T11:46:37.009Z,100881.41
2023-03-11T11:49:21.562Z,100975.84
2023-03-11T11:51:56.205Z,101016.56
2023-03-11T11:54:43.802Z,100992.09
2023-03-11T11:57:16.315Z,100980.69
2023-03-11T11:59:44.138Z,101012.50
2023-03-11T12:02:35.767Z,101050.00
2023-03-11T12:05:11.247Z,101143.81
2023-03-11T12:08:03.020Z,101113.91
2023-03-11T12:10:40.143Z,101023.63
2023-03-11T12:13:12.926Z,101040.25
2023-03-11T12:15:47.866Z,101050.25
2023-03-11T12:18:57.589Z,101047.38
2023-03-11T12:22:03.315Z,100928.44
2023-03-11T12:24:39.062Z,100795.78
2023-03-11T12:27:21.337Z,100873.50
2023-03-11T12:29:55.588Z,100886.25
2023-03-11T12:32:37.149Z,101047.72
2023-03-11T12:35:45.581Z,101056.59
2023-03-11T12:38:18.524Z,100978.03
2023-03-11T12:40:44.978Z,101079.53
2023-03-11T12:43:47.362Z,101046.81
2023-03-11T12:46:16.153Z,101025.38
2023-03-11T12:48:47.019Z,100855.88
2023-03-11T12:51:32.007Z,100898.38
2023-03-11T12:53:58.553Z,100871.09
2023-03-11T12:56:40.346Z,100816.47
2023-03-11T12:59:33.257Z,100930.16
2023-03-11T13:02:27.326Z,101012.78
2023-03-11T13:05:05.689Z,100982.19
2023-03-11T13:07:37.568Z,101037.31
2023-03-11T13:10:17.830Z,101014.00
2023-03-11T13:12:52.254Z,101087.16
2023-03-11T13:15:18.702Z,101090.56
2023-03-11T13:18:12.235Z,101134.03
2023-03-11T13:20:41.960Z,101075.03
2023-03-11T13:23:14.326Z,101031.88
2023-03-11T13:26:03.757Z,101074.66
2023-03-11T13:29:04.097Z,101058.66
2023-03-11T13:31:52.452Z,101006.03
2023-03-11T13:34:54.649Z,101004.63
2023-03-11T13:37:49.052Z,100885.69
2023-03-11T13:40:36.540Z,100892.00
2023-03-11T13:43:05.327Z,100814.91
2023-03-11T13:45:34.513Z,100667.19
2023-03-11T13:48:13.847Z,100712.69
2023-03-11T13:50:48.058Z,100844.81
2023-03-11T13:53:35.780Z,100943.13
2023-03-11T13:56:02.387Z,100805.25
2023-03-11T13:58:29.015Z,100945.88
2023-03-11T14:01:01.065Z,100815.56
2023-03-11T14:03:39.053Z,101004.19
2023-03-11T14:06:08.973Z,101015.25
2023-03-11T14:08:38.384Z,101164.56
2023-03-11T14:11:17.372Z,101050.13
2023-03-11T14:13:46.873Z,101290.13
2023-03-11T14:16:21.603Z,101132.06
2023-03-11T14:19:01.296Z,100909.72
2023-03-11T14:21:28.334Z,100863.69
2023-03-11T14:23:55.912Z,101067.09
2023-03-11T14:26:26.656Z,101014.28
2023-03-11T14:28:55.884Z,100849.81
2023-03-11T14:31:22.296Z,101081.06
2023-03-11T14:34:00.473Z,101100.94
2023-03-11T14:36:27.195Z,100979.31
2023-03-11T14:38:53.690Z,101081.03
2023-03-11T14:41:20.338Z,100998.44
2023-03-11T14:43:52.626Z,101030.25
2023-03-11T14:46:26.203Z,101006.31
2023-03-11T14:48:54.629Z,101002.59
2023-03-11T14:51:27.861Z,100967.88
2023-03-11T14:54:23.244Z,100877.31
2023-03-11T14:57:07.937Z,100899.06
2023-03-11T14:59:36.472Z,100911.94
2023-03-11T15:02:33.171Z,100947.69
2023-03-11T15:05:07.309Z,100927.03
2023-03-11T15:07:36.821Z,100897.13
2023-03-11T15:10:09.257Z,100856.00
2023-03-11T15:12:42.260Z,100832.19
2023-03-11T15:15:29.167Z,100923.78
2023-03-11T15:17:58.549Z,100885.09
2023-03-11T15:20:36.664Z,100858.19
2023-03-11T15:23:05.594Z,100892.28
2023-03-11T15:25:35.008Z,100860.88
2023-03-11T15:28:25.194Z,100975.69
2023-03-11T15:31:26.121Z,100991.63
2023-03-11T15:33:52.627Z,100850.47
2023-03-11T15:36:34.552Z,100876.22
2023-03-11T15:39:13.741Z,100978.56
2023-03-11T15:41:41.902Z,100926.78
2023-03-11T15:44:32.706Z,100933.69
2023-03-11T15:46:59.673Z,100890.81
2023-03-11T15:49:27.180Z,100843.44
2023-03-11T15:51:57.717Z,100849.47
2023-03-11T15:54:24.242Z,100950.84
2023-03-11T15:56:50.832Z,100910.31
2023-03-11T15:59:17.986Z,100943.66
2023-03-11T16:01:44.882Z,100916.81
2023-03-11T16:04:17.404Z,100918.81
2023-03-11T16:06:44.724Z,100872.16
2023-03-11T16:09:12.381Z,100952.97
2023-03-11T16:11:40.444Z,100925.19
2023-03-11T16:14:13.278Z,100873.59
2023-03-11T16:16:39.701Z,100969.09
2023-03-11T16:19:06.164Z,100873.22
2023-03-11T16:21:39.668Z,100948.72
2023-03-11T16:24:06.989Z,100949.41
2023-03-11T16:26:35.663Z,100955.13
2023-03-11T16:29:16.660Z,100856.56
2023-03-11T16:31:45.144Z,100836.25
2023-03-11T16:34:11.552Z,100901.84
2023-03-11T16:36:38.216Z,100980.66
2023-03-11T16:39:04.690Z,100910.56
2023-03-11T16:41:41.205Z,100903.09
2023-03-11T16:44:10.164Z,100942.75
2023-03-11T16:46:36.915Z,100939.03
2023-03-11T16:49:03.990Z,100883.50
2023-03-11T16:51:30.623Z,100964.25
2023-03-11T16:53:57.276Z,100953.81
2023-03-11T16:56:23.833Z,100989.91
2023-03-11T16:58:50.369Z,101002.59
2023-03-11T17:01:17.075Z,100932.06
2023-03-11T17:03:43.676Z,100994.19
2023-03-11T17:06:10.450Z,100943.47
2023-03-11T17:08:36.991Z,100925.19
2023-03-11T17:11:03.623Z,100889.44
2023-03-11T17:13:30.643Z,100901.94
2023-03-11T17:16:01.812Z,100881.53
2023-03-11T17:18:29.081Z,100903.94
2023-03-11T17:20:55.794Z,100892.25
2023-03-11T17:23:22.326Z,100856.06
2023-03-11T17:25:48.820Z,100916.88
2023-03-11T17:28:15.262Z,100850.63
2023-03-11T17:30:43.286Z,100850.97
2023-03-11T17:33:09.936Z,100861.00
2023-03-11T17:35:36.497Z,100861.34
2023-03-11T17:38:03.123Z,100862.63
2023-03-11T17:40:29.698Z,100906.88
2023-03-11T17:42:56.318Z,100886.09
2023-03-11T17:45:22.816Z,100943.38
2023-03-11T17:47:49.377Z,100941.16
2023-03-11T17:50:16.153Z,100882.16
2023-03-11T17:52:42.610Z,100914.47
2023-03-11T17:55:09.755Z,100927.13
2023-03-11T17:57:44.956Z,100936.97
2023-03-11T18:00:13.314Z,100865.06
2023-03-11T18:02:39.826Z,100819.19
2023-03-11T18:05:07.122Z,100874.44
2023-03-11T18:07:36.119Z,100862.91
2023-03-11T18:10:03.269Z,100907.84
2023-03-11T18:12:29.734Z,100877.50
2023-03-11T18:14:56.265Z,100834.81
2023-03-11T18:17:22.716Z,100819.50
2023-03-11T18:19:49.206Z,100799.31
2023-03-11T18:22:15.982Z,100838.94
2023-03-11T18:24:42.568Z,100853.16
2023-03-11T18:27:09.147Z,100805.56
2023-03-11T18:29:35.840Z,100894.31
2023-03-11T18:32:06.235Z,100886.50
2023-03-11T18:34:32.992Z,100909.19
2023-03-11T18:36:59.505Z,100906.88
2023-03-11T18:39:26.048Z,100861.16
2023-03-11T18:41:52.503Z,100908.06
2023-03-11T18:44:19.023Z,100954.03
2023-03-11T18:46:45.597Z,100910.88
2023-03-11T18:49:13.276Z,100952.44
2023-03-11T18:51:40.018Z,101029.59
2023-03-11T18:54:06.548Z,100986.78
2023-03-11T18:56:33.822Z,101011.53
2023-03-11T18:59:00.983Z,101014.63
2023-03-11T19:01:27.725Z,100991.63
2023-03-11T19:03:56.714Z,100956.88
2023-03-11T19:06:24.496Z,100940.88
2023-03-11T19:08:51.153Z,100978.88
2023-03-11T19:11:20.128Z,101031.72
2023-03-11T19:13:47.946Z,101001.19
2023-03-11T19:16:17.347Z,101036.50
2023-03-11T19:18:44.155Z,101023.78
2023-03-11T19:21:12.702Z,101021.63
2023-03-11T19:23:39.358Z,100971.72
2023-03-11T19:26:06.289Z,100950.00
2023-03-11T19:28:33.451Z,100983.59
2023-03-11T19:31:00.038Z,100970.25
2023-03-11T19:33:27.358Z,100915.13
2023-03-11T19:35:53.906Z,101026.91
2023-03-11T19:38:20.885Z,100937.56
2023-03-11T19:40:54.902Z,101005.97
2023-03-11T19:43:21.795Z,101054.91
2023-03-11T19:45:49.191Z,100979.25
2023-03-11T19:48:16.282Z,101016.56
2023-03-11T19:50:43.115Z,101033.81
2023-03-11T19:53:09.798Z,100957.66
2023-03-11T19:55:36.316Z,100972.06
2023-03-11T19:58:03.077Z,100967.63
2023-03-11T20:00:29.646Z,100989.16
2023-03-11T20:02:56.173Z,100972.34
2023-03-11T20:05:22.782Z,101012.13
2023-03-11T20:07:49.344Z,101030.50
2023-03-11T20:10:17.602Z,101009.13
2023-03-11T20:12:59.630Z,101025.28
2023-03-11T20:15:28.506Z,101014.31
2023-03-11T20:17:55.060Z,100926.25
2023-03-11T20:20:21.628Z,100949.44
2023-03-11T20:22:48.295Z,100964.47
2023-03-11T20:25:15.185Z,101009.56
2023-03-11T20:27:42.662Z,101014.78
2023-03-11T20:30:09.988Z,100958.59
2023-03-11T20:32:36.485Z,100987.28
2023-03-11T20:35:03.349Z,101013.00
2023-03-11T20:37:31.150Z,100973.72
2023-03-11T20:39:57.883Z,100954.16
2023-03-11T20:42:24.559Z,101022.13
2023-03-11T20:44:55.528Z,100992.97
2023-03-11T20:47:22.191Z,101023.16
2023-03-11T20:49:48.723Z,100990.84
2023-03-11T20:52:15.315Z,100931.75
2023-03-11T20:54:41.884Z,100985.81
2023-03-11T20:57:08.369Z,100997.22
2023-03-11T20:59:35.217Z,101000.56
2023-03-11T21:02:01.974Z,101013.34
2023-03-11T21:04:28.623Z,100972.63
2023-03-11T21:06:55.302Z,101017.56
2023-03-11T21:09:21.846Z,101020.34
2023-03-11T21:11:48.448Z,101025.44
2023-03-11T21:14:17.158Z,101020.22
2023-03-11T21:16:44.335Z,101030.00
2023-03-11T21:19:12.665Z,101033.63
2023-03-11T21:21:39.469Z,101017.88
2023-03-11T21:24:06.492Z,100982.94
2023-03-11T21:26:32.994Z,101041.75
2023-03-11T21:28:59.516Z,101043.78
2023-03-11T21:31:29.053Z,100962.34
2023-03-11T21:33:57.892Z,101026.09
2023-03-11T21:36:24.596Z,101004.69
2023-03-11T21:38:51.760Z,100966.59
2023-03-11T21:41:21.622Z,101023.91
2023-03-11T21:43:48.355Z,100912.84
2023-03-11T21:46:17.383Z,101022.56
2023-03-11T21:48:44.632Z,101037.81
2023-03-11T21:51:11.410Z,100983.34
2023-03-11T21:53:38.821Z,101039.41
2023-03-11T21:56:05.628Z,100984.38
2023-03-11T21:58:33.706Z,101027.34
2023-03-11T22:01:01.146Z,100992.66
2023-03-11T22:03:27.918Z,100851.16
2023-03-11T22:06:02.681Z,101006.13
2023-03-11T22:08:29.488Z,100952.28
2023-03-11T22:10:56.156Z,100910.94
2023-03-11T22:13:23.578Z,100950.09
2023-03-11T22:15:50.510Z,100997.56
2023-03-11T22:18:17.170Z,100956.75
2023-03-11T22:20:44.372Z,101028.78
2023-03-11T22:23:11.028Z,101027.31
2023-03-11T22:25:38.157Z,100976.03
2023-03-11T22:28:05.228Z,101009.66
2023-03-11T22:30:31.722Z,100974.88
2023-03-11T22:32:58.294Z,100991.66
2023-03-11T22:35:24.741Z,100988.97
2023-03-11T22:37:51.292Z,100981.72
2023-03-11T22:40:17.978Z,100994.16
2023-03-11T22:42:44.500Z,100981.63
2023-03-11T22:45:11.287Z,100988.81
2023-03-11T22:47:37.995Z,100971.72
2023-03-11T22:50:04.909Z,100957.91
2023-03-11T22:52:31.439Z,100984.47
2023-03-11T22:54:57.996Z,100986.91
2023-03-11T22:57:24.601Z,100949.94
2023-03-11T22:59:51.204Z,100992.59
2023-03-11T23:02:17.770Z,100913.13
2023-03-11T23:04:45.278Z,100924.31
2023-03-11T23:07:12.101Z,100976.28
2023-03-11T23:09:38.820Z,100959.66
2023-03-11T23:12:05.751Z,100962.09
2023-03-11T23:14:44.168Z,100945.22
2023-03-11T23:17:11.448Z,100949.28
2023-03-11T23:19:38.491Z,100870.28
2023-03-11T23:22:05.134Z,100957.47
2023-03-11T23:24:31.642Z,100965.41
2023-03-11T23:26:58.098Z,100904.53
2023-03-11T23:29:24.568Z,100928.38
2023-03-11T23:31:51.080Z,100960.78
2023-03-11T23:34:17.602Z,100991.41
2023-03-11T23:36:44.102Z,100939.84
2023-03-11T23:39:10.513Z,100891.56
2023-03-11T23:41:37.003Z,100923.66
2023-03-11T23:44:03.897Z,100942.28
2023-03-11T23:46:30.483Z,100927.41
2023-03-11T23:48:57.299Z,100905.91
2023-03-11T23:51:23.760Z,100900.09
2023-03-11T23:53:50.277Z,100920.78
2023-03-11T23:56:18.508Z,100850.06
2023-03-11T23:58:46.530Z,100913.06
